createdAt,value
2022-12-18T00:01:16.450Z,75.94
2022-12-18T00:03:45.390Z,75.83
2022-12-18T00:06:17.698Z,74.67
2022-12-18T00:08:46.142Z,74.99
2022-12-18T00:11:16.366Z,75.52
2022-12-18T00:13:44.913Z,74.31
2022-12-18T00:16:14.931Z,74.78
2022-12-18T00:18:43.606Z,74.37
2022-12-18T00:21:12.673Z,74.83
2022-12-18T00:23:43.349Z,74.66
2022-12-18T00:26:13.291Z,73.12
2022-12-18T00:28:44.794Z,73.23
2022-12-18T00:31:13.955Z,72.17
2022-12-18T00:33:42.492Z,71.63
2022-12-18T00:36:13.027Z,72.30
2022-12-18T00:38:43.017Z,72.49
2022-12-18T00:41:12.162Z,73.11
2022-12-18T00:43:40.172Z,73.69
2022-12-18T00:46:08.760Z,72.15
2022-12-18T00:48:37.828Z,72.21
2022-12-18T00:51:05.938Z,71.84
2022-12-18T00:53:36.146Z,72.33
2022-12-18T00:56:06.279Z,73.42
2022-12-18T00:58:37.356Z,71.75
2022-12-18T01:01:06.423Z,73.02
2022-12-18T01:03:36.465Z,72.09
2022-12-18T01:06:08.060Z,72.23
2022-12-18T01:08:36.308Z,72.53
2022-12-18T01:11:11.594Z,73.26
2022-12-18T01:13:40.447Z,73.63
2022-12-18T01:16:10.058Z,72.17
2022-12-18T01:18:38.363Z,72.59
2022-12-18T01:21:08.426Z,71.90
2022-12-18T01:23:39.196Z,72.35
2022-12-18T01:26:08.481Z,72.44
2022-12-18T01:28:38.830Z,73.68
2022-12-18T01:31:16.330Z,72.75
2022-12-18T01:33:44.629Z,73.13
2022-12-18T01:36:17.139Z,74.51
2022-12-18T01:38:45.425Z,74.04
2022-12-18T01:41:13.669Z,73.20
2022-12-18T01:43:50.986Z,72.56
2022-12-18T01:46:20.589Z,71.53
2022-12-18T01:48:50.068Z,73.95
2022-12-18T01:51:18.424Z,72.78
2022-12-18T01:53:47.318Z,72.54
2022-12-18T01:56:16.865Z,72.53
2022-12-18T01:58:50.057Z,72.62
2022-12-18T02:01:20.073Z,72.68
2022-12-18T02:03:48.203Z,71.47
2022-12-18T02:06:19.180Z,72.03
2022-12-18T02:08:53.593Z,72.03
2022-12-18T02:11:26.570Z,72.32
2022-12-18T02:14:02.713Z,71.52
2022-12-18T02:16:37.040Z,71.60
2022-12-18T02:19:07.982Z,74.02
2022-12-18T02:21:39.160Z,72.63
2022-12-18T02:24:18.312Z,71.74
2022-12-18T02:26:50.974Z,71.13
2022-12-18T02:29:24.983Z,70.77
2022-12-18T02:31:54.861Z,72.18
2022-12-18T02:34:24.564Z,70.15
2022-12-18T02:36:53.867Z,72.19
2022-12-18T02:39:24.198Z,71.43
2022-12-18T02:42:03.541Z,73.18
2022-12-18T02:44:31.697Z,72.41
2022-12-18T02:47:00.146Z,72.85
2022-12-18T02:49:33.780Z,73.00
2022-12-18T02:52:07.634Z,72.87
2022-12-18T02:54:44.870Z,72.27
2022-12-18T02:57:17.887Z,71.56
2022-12-18T02:59:51.725Z,73.27
2022-12-18T03:02:23.957Z,72.76
2022-12-18T03:04:57.057Z,71.79
2022-12-18T03:07:28.853Z,73.21
2022-12-18T03:10:00.243Z,73.71
2022-12-18T03:12:32.422Z,72.38
2022-12-18T03:15:03.110Z,73.15
2022-12-18T03:17:33.160Z,73.42
2022-12-18T03:20:04.633Z,74.50
2022-12-18T03:22:36.181Z,73.71
2022-12-18T03:25:07.362Z,73.08
2022-12-18T03:27:40.879Z,73.00
2022-12-18T03:30:13.617Z,73.76
2022-12-18T03:32:44.672Z,75.11
2022-12-18T03:35:15.683Z,74.14
2022-12-18T03:37:44.195Z,72.99
2022-12-18T03:40:12.698Z,72.78
2022-12-18T03:42:47.385Z,73.54
2022-12-18T03:45:21.154Z,72.77
2022-12-18T03:47:58.065Z,73.42
2022-12-18T03:50:29.828Z,72.79
2022-12-18T03:53:02.549Z,73.48
2022-12-18T03:55:34.579Z,74.05
2022-12-18T03:58:09.542Z,75.27
2022-12-18T04:00:50.546Z,73.71
2022-12-18T04:03:25.414Z,74.67
2022-12-18T04:05:56.894Z,74.53
2022-12-18T04:08:26.780Z,74.24
2022-12-18T04:11:05.930Z,74.99
2022-12-18T04:13:38.254Z,74.46
2022-12-18T04:16:15.596Z,74.10
2022-12-18T04:18:46.133Z,74.20
2022-12-18T04:21:16.159Z,73.60
2022-12-18T04:23:44.951Z,74.88
2022-12-18T04:26:14.573Z,75.37
2022-12-18T04:29:00.499Z,74.56
2022-12-18T04:31:30.563Z,73.00
2022-12-18T04:33:58.887Z,74.22
2022-12-18T04:36:27.095Z,73.74
2022-12-18T04:38:55.471Z,74.10
2022-12-18T04:41:23.785Z,73.43
2022-12-18T04:43:54.369Z,73.93
2022-12-18T04:46:23.989Z,74.16
2022-12-18T04:48:52.099Z,72.72
2022-12-18T04:51:26.095Z,72.43
2022-12-18T04:53:54.927Z,73.06
2022-12-18T04:56:22.986Z,72.51
2022-12-18T04:58:51.051Z,72.67
2022-12-18T05:01:20.042Z,72.68
2022-12-18T05:03:49.632Z,72.27
2022-12-18T05:06:17.820Z,71.83
2022-12-18T05:08:45.972Z,71.66
2022-12-18T05:11:16.778Z,71.62
2022-12-18T05:13:45.478Z,71.58
2022-12-18T05:16:14.093Z,72.15
2022-12-18T05:18:42.619Z,71.52
2022-12-18T05:21:12.080Z,72.75
2022-12-18T05:23:40.459Z,72.09
2022-12-18T05:26:09.044Z,71.90
2022-12-18T05:28:38.039Z,72.00
2022-12-18T05:31:07.070Z,71.52
2022-12-18T05:33:36.547Z,71.60
2022-12-18T05:36:06.041Z,71.57
2022-12-18T05:38:36.832Z,71.68
2022-12-18T05:41:05.344Z,72.38
2022-12-18T05:43:33.948Z,71.83
2022-12-18T05:46:05.735Z,72.15
2022-12-18T05:48:34.032Z,72.21
2022-12-18T05:51:06.092Z,71.77
2022-12-18T05:53:36.174Z,71.48
2022-12-18T05:56:05.520Z,71.52
2022-12-18T05:58:33.895Z,70.99
2022-12-18T06:01:08.355Z,72.09
2022-12-18T06:03:36.515Z,71.62
2022-12-18T06:06:04.887Z,71.54
2022-12-18T06:08:33.082Z,71.53
2022-12-18T06:11:02.900Z,71.91
2022-12-18T06:13:31.241Z,72.39
2022-12-18T06:15:59.397Z,72.04
2022-12-18T06:18:27.565Z,72.09
2022-12-18T06:20:58.637Z,72.06
2022-12-18T06:23:26.921Z,72.20
2022-12-18T06:25:55.197Z,72.23
2022-12-18T06:28:24.728Z,72.92
2022-12-18T06:30:54.209Z,71.98
2022-12-18T06:33:22.433Z,72.24
2022-12-18T06:35:50.754Z,72.52
2022-12-18T06:38:18.930Z,71.85
2022-12-18T06:40:47.105Z,72.75
2022-12-18T06:43:15.498Z,72.48
2022-12-18T06:45:45.015Z,72.63
2022-12-18T06:48:13.211Z,72.85
2022-12-18T06:50:44.309Z,72.61
2022-12-18T06:53:12.406Z,71.91
2022-12-18T06:55:40.636Z,73.01
2022-12-18T06:58:09.771Z,72.38
2022-12-18T07:00:39.653Z,71.72
2022-12-18T07:03:09.433Z,70.91
2022-12-18T07:05:41.745Z,71.53
2022-12-18T07:08:10.118Z,70.66
2022-12-18T07:10:47.400Z,72.62
2022-12-18T07:13:16.356Z,69.89
2022-12-18T07:15:44.558Z,71.00
2022-12-18T07:18:14.869Z,71.71
2022-12-18T07:20:43.525Z,70.37
2022-12-18T07:23:11.542Z,70.80
2022-12-18T07:25:40.519Z,70.88
2022-12-18T07:28:11.657Z,69.86
2022-12-18T07:30:43.863Z,70.92
2022-12-18T07:33:11.975Z,71.11
2022-12-18T07:35:41.520Z,70.58
2022-12-18T07:38:09.749Z,71.40
2022-12-18T07:40:37.897Z,69.76
2022-12-18T07:43:05.957Z,69.82
2022-12-18T07:45:34.067Z,70.12
2022-12-18T07:48:02.188Z,69.32
2022-12-18T07:50:30.250Z,69.90
2022-12-18T07:52:59.890Z,70.62
2022-12-18T07:55:28.498Z,69.63
2022-12-18T07:58:01.182Z,70.40
2022-12-18T08:00:29.573Z,69.80
2022-12-18T08:02:57.883Z,69.80
2022-12-18T08:05:26.285Z,69.52
2022-12-18T08:07:55.004Z,68.78
2022-12-18T08:10:24.569Z,69.40
2022-12-18T08:12:53.059Z,70.16
2022-12-18T08:15:21.087Z,69.36
2022-12-18T08:17:50.004Z,69.20
2022-12-18T08:20:19.530Z,69.19
2022-12-18T08:22:47.614Z,69.41
2022-12-18T08:25:15.848Z,69.23
2022-12-18T08:27:45.412Z,69.46
2022-12-18T08:30:13.904Z,67.89
2022-12-18T08:32:42.060Z,68.78
2022-12-18T08:35:12.782Z,68.39
2022-12-18T08:37:41.035Z,68.81
2022-12-18T08:40:11.446Z,68.26
2022-12-18T08:42:57.066Z,68.06
2022-12-18T08:45:27.402Z,68.74
2022-12-18T08:47:56.012Z,69.20
2022-12-18T08:50:24.072Z,69.29
2022-12-18T08:52:52.414Z,69.13
2022-12-18T08:55:20.867Z,69.67
2022-12-18T08:57:50.444Z,69.71
2022-12-18T09:00:18.839Z,67.97
2022-12-18T09:02:48.432Z,68.51
2022-12-18T09:05:17.593Z,69.20
2022-12-18T09:07:45.602Z,69.68
2022-12-18T09:10:14.565Z,68.83
2022-12-18T09:12:42.645Z,68.32
2022-12-18T09:15:11.412Z,68.94
2022-12-18T09:17:39.511Z,68.83
2022-12-18T09:20:10.092Z,68.46
2022-12-18T09:22:38.399Z,68.75
2022-12-18T09:25:08.853Z,68.79
2022-12-18T09:27:37.165Z,68.79
2022-12-18T09:30:06.042Z,69.11
2022-12-18T09:32:34.309Z,68.28
2022-12-18T09:35:02.790Z,67.83
2022-12-18T09:37:32.933Z,69.53
2022-12-18T09:40:04.065Z,70.20
2022-12-18T09:42:32.569Z,69.72
2022-12-18T09:45:03.309Z,68.29
2022-12-18T09:47:33.256Z,69.33
2022-12-18T09:50:06.046Z,68.70
2022-12-18T09:52:38.207Z,69.93
2022-12-18T09:55:11.893Z,69.67
2022-12-18T09:57:45.883Z,69.23
2022-12-18T10:00:18.414Z,69.09
2022-12-18T10:02:47.370Z,69.23
2022-12-18T10:05:16.547Z,69.54
2022-12-18T10:07:59.410Z,70.21
2022-12-18T10:10:40.534Z,69.17
2022-12-18T10:13:13.020Z,70.37
2022-12-18T10:15:44.075Z,69.73
2022-12-18T10:18:23.922Z,69.54
2022-12-18T10:20:54.240Z,70.31
2022-12-18T10:23:28.649Z,71.41
2022-12-18T10:26:02.129Z,70.85
2022-12-18T10:28:31.755Z,72.86
2022-12-18T10:31:00.706Z,71.12
2022-12-18T10:33:31.173Z,70.56
2022-12-18T10:35:59.394Z,70.95
2022-12-18T10:38:29.740Z,70.77
2022-12-18T10:40:59.152Z,71.31
2022-12-18T10:43:28.343Z,71.14
2022-12-18T10:46:13.801Z,72.90
2022-12-18T10:48:43.583Z,71.60
2022-12-18T10:51:12.947Z,71.58
2022-12-18T10:53:44.684Z,72.20
2022-12-18T10:56:13.097Z,70.73
2022-12-18T10:58:41.824Z,71.12
2022-12-18T11:01:13.355Z,72.61
2022-12-18T11:03:44.393Z,71.72
2022-12-18T11:06:13.396Z,71.36
2022-12-18T11:08:43.968Z,70.92
2022-12-18T11:11:18.643Z,70.18
2022-12-18T11:13:54.835Z,71.57
2022-12-18T11:16:23.329Z,70.12
2022-12-18T11:18:51.692Z,69.54
2022-12-18T11:21:20.047Z,70.92
2022-12-18T11:23:52.689Z,71.30
2022-12-18T11:26:22.588Z,70.77
2022-12-18T11:28:54.983Z,70.38
2022-12-18T11:31:25.654Z,71.49
2022-12-18T11:36:50.336Z,72.38
2022-12-18T11:39:22.470Z,71.63
2022-12-18T11:42:13.353Z,72.46
2022-12-18T11:44:45.116Z,71.03
2022-12-18T11:47:18.083Z,72.20
2022-12-18T11:49:47.920Z,73.19
2022-12-18T11:52:19.522Z,73.22
2022-12-18T11:54:49.490Z,72.23
2022-12-18T11:57:28.124Z,72.08
2022-12-18T11:59:59.341Z,71.26
2022-12-18T12:02:39.581Z,73.59
2022-12-18T12:05:17.908Z,72.72
2022-12-18T12:07:56.954Z,71.88
2022-12-18T12:10:37.646Z,72.60
2022-12-18T12:13:15.720Z,72.65
2022-12-18T12:15:49.776Z,73.64
2022-12-18T12:18:24.237Z,73.62
2022-12-18T12:20:56.866Z,72.40
2022-12-18T12:23:30.214Z,72.83
2022-12-18T12:26:03.689Z,71.87
2022-12-18T12:28:57.988Z,71.70
2022-12-18T12:31:34.847Z,71.90
2022-12-18T12:34:10.460Z,72.31
2022-12-18T12:36:45.080Z,72.16
2022-12-18T12:39:16.462Z,72.69
2022-12-18T12:42:05.064Z,73.23
2022-12-18T12:44:35.020Z,72.34
2022-12-18T12:47:09.682Z,72.78
2022-12-18T12:49:40.942Z,74.41
2022-12-18T12:52:13.411Z,72.88
2022-12-18T12:54:42.530Z,72.26
2022-12-18T12:57:15.197Z,72.80
2022-12-18T12:59:50.695Z,71.72
2022-12-18T13:02:22.958Z,71.23
2022-12-18T13:04:58.796Z,71.44
2022-12-18T13:07:31.850Z,70.59
2022-12-18T13:10:26.803Z,70.93
2022-12-18T13:12:57.119Z,70.38
2022-12-18T13:15:27.548Z,70.55
2022-12-18T13:18:13.939Z,70.23
2022-12-18T13:20:45.635Z,72.71
2022-12-18T13:23:37.981Z,71.43
2022-12-18T13:26:28.107Z,72.15
2022-12-18T13:29:05.399Z,72.25
2022-12-18T13:31:57.680Z,70.75
2022-12-18T13:34:29.452Z,71.13
2022-12-18T13:37:00.681Z,72.01
2022-12-18T13:39:35.874Z,72.17
2022-12-18T13:42:36.523Z,72.44
2022-12-18T13:45:24.006Z,71.64
2022-12-18T13:47:53.804Z,72.37
2022-12-18T13:50:24.715Z,72.02
2022-12-18T13:52:54.001Z,71.78
2022-12-18T13:55:23.321Z,73.12
2022-12-18T13:57:51.614Z,71.34
2022-12-18T14:00:26.565Z,71.27
2022-12-18T14:02:57.232Z,71.53
2022-12-18T14:05:26.021Z,72.02
2022-12-18T14:07:58.639Z,71.10
2022-12-18T14:10:45.607Z,71.32
2022-12-18T14:13:18.231Z,72.29
2022-12-18T14:15:50.998Z,72.59
2022-12-18T14:18:22.890Z,72.58
2022-12-18T14:20:53.265Z,71.82
2022-12-18T14:23:31.935Z,71.65
2022-12-18T14:26:05.413Z,71.11
2022-12-18T14:28:34.395Z,72.32
2022-12-18T14:31:02.585Z,72.32
2022-12-18T14:33:32.190Z,71.94
2022-12-18T14:36:01.754Z,70.99
2022-12-18T14:38:31.004Z,70.12
2022-12-18T14:41:00.145Z,69.84
2022-12-18T14:43:28.934Z,71.00
2022-12-18T14:45:57.463Z,71.60
2022-12-18T14:48:34.594Z,73.61
2022-12-18T14:51:05.712Z,70.26
2022-12-18T14:53:39.212Z,71.68
2022-12-18T14:56:17.007Z,70.80
2022-12-18T14:58:49.818Z,68.98
2022-12-18T15:01:22.121Z,69.22
2022-12-18T15:03:52.837Z,69.44
2022-12-18T15:06:28.060Z,70.16
2022-12-18T15:08:57.266Z,71.75
2022-12-18T15:11:28.011Z,71.62
2022-12-18T15:13:56.416Z,72.79
2022-12-18T15:16:24.816Z,70.05
2022-12-18T15:18:53.511Z,69.67
2022-12-18T15:21:22.579Z,68.07
2022-12-18T15:23:53.559Z,69.10
2022-12-18T15:26:30.066Z,70.26
2022-12-18T15:28:59.700Z,70.36
2022-12-18T15:31:31.903Z,70.17
2022-12-18T15:34:14.800Z,70.18
2022-12-18T15:36:43.242Z,68.76
2022-12-18T15:39:14.912Z,68.30
2022-12-18T15:42:03.806Z,69.72
2022-12-18T15:44:32.123Z,69.21
2022-12-18T15:47:00.739Z,68.20
2022-12-18T15:49:29.040Z,67.96
2022-12-18T15:51:59.018Z,68.81
2022-12-18T15:54:46.005Z,68.21
2022-12-18T15:57:27.625Z,68.46
2022-12-18T15:59:59.576Z,67.91
2022-12-18T16:02:29.452Z,68.30
2022-12-18T16:04:58.564Z,68.17
2022-12-18T16:07:30.588Z,70.08
2022-12-18T16:10:02.371Z,68.92
2022-12-18T16:12:32.379Z,68.00
2022-12-18T16:15:01.736Z,68.81
2022-12-18T16:17:31.995Z,69.05
2022-12-18T16:20:01.238Z,68.87
2022-12-18T16:22:31.425Z,68.14
2022-12-18T16:25:01.912Z,68.53
2022-12-18T16:27:31.283Z,68.60
2022-12-18T16:30:00.651Z,68.20
2022-12-18T16:32:29.141Z,67.99
2022-12-18T16:35:02.089Z,67.28
2022-12-18T16:37:31.608Z,67.55
2022-12-18T16:40:01.498Z,69.09
2022-12-18T16:42:30.960Z,69.54
2022-12-18T16:44:59.528Z,69.09
2022-12-18T16:47:27.877Z,68.19
2022-12-18T16:49:56.147Z,67.91
2022-12-18T16:52:24.602Z,68.52
2022-12-18T16:54:53.157Z,68.02
2022-12-18T16:57:25.169Z,67.62
2022-12-18T16:59:58.756Z,68.75
2022-12-18T17:02:32.629Z,67.11
2022-12-18T17:05:01.553Z,66.96
2022-12-18T17:07:31.721Z,67.69
2022-12-18T17:10:00.763Z,67.77
2022-12-18T17:12:31.331Z,67.60
2022-12-18T17:15:02.319Z,68.51
2022-12-18T17:17:31.649Z,67.70
2022-12-18T17:20:00.655Z,67.71
2022-12-18T17:22:29.367Z,66.72
2022-12-18T17:24:58.945Z,66.46
2022-12-18T17:27:28.549Z,66.02
2022-12-18T17:29:59.738Z,66.40
2022-12-18T17:32:28.921Z,66.92
2022-12-18T17:35:00.514Z,67.24
2022-12-18T17:37:32.931Z,67.00
2022-12-18T17:40:04.789Z,67.10
2022-12-18T17:42:33.828Z,67.63
2022-12-18T17:45:04.889Z,66.64
2022-12-18T17:47:34.238Z,66.67
2022-12-18T17:50:03.894Z,67.76
2022-12-18T17:52:32.666Z,67.31
2022-12-18T17:55:01.447Z,66.96
2022-12-18T17:57:30.633Z,67.24
2022-12-18T17:59:59.369Z,66.85
2022-12-18T18:02:29.910Z,67.31
2022-12-18T18:04:59.231Z,66.79
2022-12-18T18:07:27.912Z,67.02
2022-12-18T18:09:56.281Z,67.32
2022-12-18T18:12:42.182Z,67.25
2022-12-18T18:15:11.215Z,68.10
2022-12-18T18:17:42.299Z,66.91
2022-12-18T18:20:12.227Z,67.79
2022-12-18T18:22:41.618Z,67.14
2022-12-18T18:25:46.789Z,67.52
2022-12-18T18:28:23.632Z,68.28
2022-12-18T18:30:52.868Z,68.86
2022-12-18T18:33:24.040Z,67.88
2022-12-18T18:35:54.488Z,67.86
2022-12-18T18:38:23.820Z,68.22
2022-12-18T18:41:00.364Z,67.64
2022-12-18T18:43:29.389Z,67.34
2022-12-18T18:45:58.157Z,68.02
2022-12-18T18:48:33.703Z,68.53
2022-12-18T18:51:07.089Z,67.96
2022-12-18T18:53:38.441Z,67.90
2022-12-18T18:56:50.214Z,68.11
2022-12-18T18:58:58.266Z,67.86
2022-12-18T19:01:27.606Z,67.86
2022-12-18T19:03:57.647Z,67.52
2022-12-18T19:06:27.780Z,67.22
2022-12-18T19:08:57.133Z,67.57
2022-12-18T19:11:45.579Z,67.47
2022-12-18T19:14:14.878Z,67.78
2022-12-18T19:16:43.574Z,66.81
2022-12-18T19:19:14.458Z,67.38
2022-12-18T19:21:43.787Z,67.74
2022-12-18T19:24:12.326Z,66.84
2022-12-18T19:26:40.552Z,66.93
2022-12-18T19:29:09.791Z,67.33
2022-12-18T19:31:40.154Z,66.80
2022-12-18T19:34:15.861Z,66.63
2022-12-18T19:36:44.510Z,66.69
2022-12-18T19:39:14.361Z,65.54
2022-12-18T19:41:44.685Z,66.49
2022-12-18T19:44:15.075Z,65.65
2022-12-18T19:46:43.634Z,66.12
2022-12-18T19:49:17.413Z,65.72
2022-12-18T19:51:47.746Z,65.96
2022-12-18T19:54:24.234Z,65.94
2022-12-18T19:56:54.958Z,65.75
2022-12-18T19:59:23.230Z,65.90
2022-12-18T20:01:53.580Z,66.16
2022-12-18T20:04:23.613Z,66.13
2022-12-18T20:06:52.811Z,65.69
2022-12-18T20:09:22.092Z,66.22
2022-12-18T20:11:51.607Z,65.74
2022-12-18T20:14:23.490Z,66.07
2022-12-18T20:16:53.473Z,65.88
2022-12-18T20:19:24.491Z,66.49
2022-12-18T20:21:53.070Z,65.72
2022-12-18T20:24:21.590Z,65.85
2022-12-18T20:26:49.996Z,65.94
2022-12-18T20:29:19.395Z,65.57
2022-12-18T20:31:48.472Z,65.44
2022-12-18T20:34:17.991Z,66.10
2022-12-18T20:36:48.136Z,65.71
2022-12-18T20:39:18.230Z,65.16
2022-12-18T20:41:47.959Z,65.35
2022-12-18T20:44:22.859Z,65.21
2022-12-18T20:46:53.878Z,65.81
2022-12-18T20:49:22.690Z,65.32
2022-12-18T20:51:53.803Z,65.79
2022-12-18T20:54:22.918Z,65.14
2022-12-18T20:56:51.703Z,64.24
2022-12-18T20:59:27.613Z,64.33
2022-12-18T21:06:54.233Z,64.42
2022-12-18T21:09:37.299Z,64.69
2022-12-18T21:12:25.171Z,64.38
2022-12-18T21:14:54.184Z,65.20
2022-12-18T21:17:23.095Z,65.22
2022-12-18T21:22:44.585Z,65.07
2022-12-18T21:25:14.139Z,66.10
2022-12-18T21:27:43.114Z,64.83
2022-12-18T21:30:12.811Z,64.74
2022-12-18T21:32:41.989Z,65.14
2022-12-18T21:35:12.782Z,65.35
2022-12-18T21:37:43.281Z,64.61
2022-12-18T21:40:13.433Z,65.65
2022-12-18T21:43:26.827Z,66.34
2022-12-18T21:45:57.077Z,65.61
2022-12-18T21:48:28.340Z,65.33
2022-12-18T21:50:58.563Z,64.99
2022-12-18T21:53:30.227Z,64.98
2022-12-18T21:56:01.908Z,65.62
2022-12-18T21:58:31.172Z,65.17
2022-12-18T22:01:01.905Z,65.40
2022-12-18T22:03:31.237Z,64.48
2022-12-18T22:06:08.927Z,64.27
2022-12-18T22:08:43.029Z,64.69
2022-12-18T22:11:14.865Z,64.45
2022-12-18T22:13:45.017Z,65.52
2022-12-18T22:16:13.996Z,65.32
2022-12-18T22:18:42.810Z,64.73
2022-12-18T22:21:29.324Z,65.17
2022-12-18T22:24:00.412Z,65.47
2022-12-18T22:26:35.033Z,65.66
2022-12-18T22:29:27.898Z,65.31
2022-12-18T22:31:57.230Z,65.00
2022-12-18T22:34:26.296Z,65.61
2022-12-18T22:36:57.242Z,65.29
2022-12-18T22:39:28.500Z,66.01
2022-12-18T22:41:58.101Z,66.32
2022-12-18T22:44:27.139Z,66.28
2022-12-18T22:47:00.810Z,66.20
2022-12-18T22:49:36.193Z,66.55
2022-12-18T22:52:09.500Z,65.31
2022-12-18T22:54:39.239Z,67.00
2022-12-18T22:57:08.034Z,65.72
2022-12-18T22:59:36.903Z,65.26
2022-12-18T23:02:05.828Z,66.17
2022-12-18T23:04:36.533Z,65.25
2022-12-18T23:07:07.927Z,65.90
2022-12-18T23:09:37.038Z,65.97
2022-12-18T23:12:06.244Z,65.28
2022-12-18T23:14:36.764Z,66.11
2022-12-18T23:17:05.788Z,66.14
2022-12-18T23:19:34.839Z,65.31
2022-12-18T23:22:07.348Z,65.29
2022-12-18T23:24:41.824Z,65.31
2022-12-18T23:27:11.589Z,65.73
2022-12-18T23:29:41.472Z,66.11
2022-12-18T23:32:10.379Z,65.60
2022-12-18T23:34:39.100Z,66.53
2022-12-18T23:37:08.115Z,66.76
2022-12-18T23:39:36.883Z,67.05
2022-12-18T23:42:07.699Z,68.20
2022-12-18T23:44:36.655Z,67.55
2022-12-18T23:47:07.141Z,67.24
2022-12-18T23:49:36.658Z,67.09
2022-12-18T23:52:06.540Z,66.73
2022-12-18T23:54:39.628Z,66.73
2022-12-18T23:57:10.149Z,66.25
2022-12-18T23:59:39.147Z,67.02
